createdAt,value
2019-04-01T00:00:09.711Z,11.96
2019-04-01T00:02:39.199Z,11.68
2019-04-01T00:05:09.721Z,11.56
2019-04-01T00:07:38.969Z,11.51
2019-04-01T00:10:08.052Z,11.42
2019-04-01T00:12:37.125Z,11.37
2019-04-01T00:15:06.264Z,11.25
2019-04-01T00:17:36.975Z,11.05
2019-04-01T00:20:06.310Z,11.22
2019-04-01T00:22:35.390Z,11.22
2019-04-01T00:25:04.416Z,11.09
2019-04-01T00:27:33.524Z,10.81
2019-04-01T00:30:02.579Z,10.66
2019-04-01T00:32:31.658Z,10.61
2019-04-01T00:35:01.024Z,10.49
2019-04-01T00:37:30.184Z,10.68
2019-04-01T00:40:01.763Z,10.56
2019-04-01T00:42:35.918Z,10.47
2019-04-01T00:45:07.971Z,10.16
2019-04-01T00:47:37.100Z,10.28
2019-04-01T00:50:06.420Z,10.18
2019-04-01T00:52:39.829Z,10.05
2019-04-01T00:55:10.273Z,10.17
2019-04-01T00:57:39.413Z,10.19
2019-04-01T01:00:10.999Z,10.20
2019-04-01T01:02:42.901Z,9.99
2019-04-01T01:05:17.726Z,10.07
2019-04-01T01:07:49.172Z,9.91
2019-04-01T01:10:22.913Z,9.99
2019-04-01T01:12:57.654Z,9.84
2019-04-01T01:15:26.949Z,9.79
2019-04-01T01:17:55.993Z,9.80
2019-04-01T01:20:25.039Z,9.83
2019-04-01T01:22:55.179Z,9.88
2019-04-01T01:25:24.336Z,9.94
2019-04-01T01:27:53.370Z,9.96
2019-04-01T01:30:26.552Z,9.98
2019-04-01T01:32:55.965Z,10.12
2019-04-01T01:35:25.142Z,10.05
2019-04-01T01:37:54.199Z,10.05
2019-04-01T01:40:23.260Z,10.25
2019-04-01T01:42:52.305Z,10.34
2019-04-01T01:45:24.388Z,10.26
2019-04-01T01:47:53.434Z,10.28
2019-04-01T01:50:22.559Z,10.37
2019-04-01T01:52:51.830Z,10.30
2019-04-01T01:55:24.072Z,10.33
2019-04-01T01:57:53.655Z,10.40
2019-04-01T02:00:27.047Z,10.17
2019-04-01T02:02:59.861Z,10.14
2019-04-01T02:08:02.692Z,10.30
2019-04-01T02:10:40.916Z,10.30
2019-04-01T02:13:10.033Z,10.38
2019-04-01T02:15:41.000Z,10.32
2019-04-01T02:18:10.149Z,10.40
2019-04-01T02:20:42.232Z,10.29
2019-04-01T02:23:11.296Z,10.44
2019-04-01T02:25:40.398Z,10.58
2019-04-01T02:28:09.532Z,10.65
2019-04-01T02:30:38.574Z,10.64
2019-04-01T02:33:09.036Z,10.44
2019-04-01T02:35:42.579Z,10.38
2019-04-01T02:38:16.427Z,10.45
2019-04-01T02:40:50.633Z,10.45
2019-04-01T02:43:19.749Z,10.47
2019-04-01T02:45:48.882Z,10.51
2019-04-01T02:48:17.913Z,2.23
2019-04-01T02:50:47.024Z,10.39
2019-04-01T02:53:16.197Z,10.32
2019-04-01T02:55:49.069Z,10.24
2019-04-01T02:58:25.434Z,10.22
2019-04-01T03:00:54.472Z,10.08
2019-04-01T03:03:23.539Z,10.13
2019-04-01T03:05:54.242Z,10.15
2019-04-01T03:08:26.378Z,9.98
2019-04-01T03:10:55.453Z,9.87
2019-04-01T03:13:24.515Z,9.77
2019-04-01T03:15:53.594Z,9.80
2019-04-01T03:18:23.022Z,9.99
2019-04-01T03:20:54.494Z,9.90
2019-04-01T03:23:29.732Z,9.82
2019-04-01T03:25:58.819Z,9.77
2019-04-01T03:28:27.942Z,9.74
2019-04-01T03:30:56.994Z,9.69
2019-04-01T03:33:26.063Z,9.52
2019-04-01T03:35:55.116Z,9.46
2019-04-01T03:38:27.634Z,9.43
2019-04-01T03:41:04.103Z,9.56
2019-04-01T03:43:36.202Z,9.57
2019-04-01T03:46:08.368Z,1.35
2019-04-01T03:48:37.470Z,9.62
2019-04-01T03:51:06.499Z,9.64
2019-04-01T03:53:35.568Z,9.51
2019-04-01T03:56:04.816Z,9.69
2019-04-01T03:58:35.023Z,9.83
2019-04-01T04:01:05.640Z,9.57
2019-04-01T04:03:40.820Z,9.64
2019-04-01T04:06:09.864Z,9.48
2019-04-01T04:08:41.802Z,9.40
2019-04-01T04:11:10.967Z,9.32
2019-04-01T04:13:40.027Z,9.34
2019-04-01T04:16:09.464Z,9.16
2019-04-01T04:18:41.585Z,9.20
2019-04-01T04:21:12.223Z,8.96
2019-04-01T04:23:41.278Z,9.03
2019-04-01T04:26:10.388Z,8.92
2019-04-01T04:28:40.002Z,8.78
2019-04-01T04:31:12.512Z,8.73
2019-04-01T04:33:41.560Z,8.67
2019-04-01T04:36:12.868Z,8.72
2019-04-01T04:38:42.071Z,8.74
2019-04-01T04:41:11.123Z,8.71
2019-04-01T04:43:45.335Z,6.21
2019-04-01T04:46:14.737Z,8.46
2019-04-01T04:48:46.875Z,8.38
2019-04-01T04:51:15.979Z,8.29
2019-04-01T04:53:47.430Z,8.34
2019-04-01T04:56:18.271Z,8.26
2019-04-01T04:58:52.158Z,8.26
2019-04-01T05:01:21.239Z,8.21
2019-04-01T05:03:50.319Z,8.10
2019-04-01T05:06:19.504Z,8.04
2019-04-01T05:08:49.937Z,8.07
2019-04-01T05:11:20.795Z,8.10
2019-04-01T05:13:54.002Z,8.06
2019-04-01T05:16:27.159Z,8.06
2019-04-01T05:19:03.332Z,7.99
2019-04-01T05:21:35.627Z,8.00
2019-04-01T05:24:04.758Z,8.02
2019-04-01T05:26:40.868Z,8.07
2019-04-01T05:29:10.686Z,8.05
2019-04-01T05:31:40.001Z,8.02
2019-04-01T05:34:17.066Z,7.98
2019-04-01T05:36:47.056Z,7.96
2019-04-01T05:39:16.105Z,8.00
2019-04-01T05:41:48.613Z,8.09
2019-04-01T05:44:19.953Z,8.25
2019-04-01T05:46:49.326Z,8.39
2019-04-01T05:49:18.615Z,8.41
2019-04-01T05:51:47.960Z,8.45
2019-04-01T05:54:19.967Z,8.63
2019-04-01T05:56:52.071Z,8.70
2019-04-01T05:59:21.340Z,8.73
2019-04-01T06:01:51.883Z,8.78
2019-04-01T06:04:21.796Z,8.67
2019-04-01T06:06:50.853Z,8.68
2019-04-01T06:09:21.706Z,8.73
2019-04-01T06:12:05.859Z,8.93
2019-04-01T06:14:45.396Z,8.98
2019-04-01T06:17:06.490Z,8.88
2019-04-01T06:19:35.531Z,9.14
2019-04-01T06:22:08.428Z,8.90
2019-04-01T06:24:41.289Z,8.95
2019-04-01T06:27:11.203Z,9.02
2019-04-01T06:29:42.117Z,9.21
2019-04-01T06:32:16.447Z,9.37
2019-04-01T06:34:52.702Z,9.38
2019-04-01T06:37:19.887Z,9.08
2019-04-01T06:39:52.720Z,9.39
2019-04-01T06:42:24.586Z,9.42
2019-04-01T06:44:56.677Z,9.61
2019-04-01T06:47:30.795Z,0.81
2019-04-01T06:49:59.872Z,9.71
2019-04-01T06:52:29.034Z,9.94
2019-04-01T06:54:58.051Z,10.04
2019-04-01T06:57:29.483Z,10.03
2019-04-01T06:59:58.581Z,10.10
2019-04-01T07:02:30.127Z,10.36
2019-04-01T07:04:59.244Z,10.51
2019-04-01T07:07:32.869Z,8.65
2019-04-01T07:10:04.728Z,10.26
2019-04-01T07:12:34.937Z,10.26
2019-04-01T07:15:06.340Z,10.34
2019-04-01T07:17:38.321Z,10.50
2019-04-01T07:20:13.836Z,10.46
2019-04-01T07:22:44.576Z,10.43
2019-04-01T07:25:13.787Z,10.16
2019-04-01T07:27:43.202Z,10.07
2019-04-01T07:30:13.821Z,10.41
2019-04-01T07:32:48.898Z,10.25
2019-04-01T07:35:18.028Z,10.36
2019-04-01T07:37:49.608Z,10.39
2019-04-01T07:40:21.205Z,10.62
2019-04-01T07:42:50.460Z,10.23
2019-04-01T07:45:20.779Z,10.45
2019-04-01T07:47:52.327Z,10.74
2019-04-01T07:50:21.616Z,10.80
2019-04-01T07:52:55.250Z,10.65
2019-04-01T07:55:24.416Z,10.65
2019-04-01T07:57:59.887Z,10.46
2019-04-01T08:00:29.084Z,11.21
2019-04-01T08:03:02.685Z,11.49
2019-04-01T08:05:31.785Z,11.51
2019-04-01T08:08:01.567Z,11.40
2019-04-01T08:10:38.321Z,11.30
2019-04-01T08:13:09.362Z,11.68
2019-04-01T08:15:38.437Z,11.55
2019-04-01T08:18:07.505Z,11.62
2019-04-01T08:20:36.574Z,11.50
2019-04-01T08:23:05.594Z,11.45
2019-04-01T08:25:34.783Z,11.57
2019-04-01T08:28:06.325Z,11.76
2019-04-01T08:30:35.448Z,11.64
2019-04-01T08:33:04.782Z,11.67
2019-04-01T08:35:37.012Z,11.69
2019-04-01T08:38:08.787Z,11.11
2019-04-01T08:40:37.925Z,11.67
2019-04-01T08:43:08.118Z,12.05
2019-04-01T08:45:37.445Z,11.95
2019-04-01T08:48:09.642Z,10.05
2019-04-01T08:50:41.828Z,11.84
2019-04-01T08:53:10.963Z,12.01
2019-04-01T08:55:41.238Z,12.23
2019-04-01T08:58:11.134Z,12.32
2019-04-01T09:00:40.157Z,12.23
2019-04-01T09:03:12.769Z,12.12
2019-04-01T09:05:45.022Z,12.27
2019-04-01T09:08:15.904Z,12.33
2019-04-01T09:10:46.564Z,12.34
2019-04-01T09:13:18.339Z,12.63
2019-04-01T09:15:52.342Z,13.01
2019-04-01T09:18:26.566Z,12.84
2019-04-01T09:20:55.598Z,12.77
2019-04-01T09:23:24.669Z,12.54
2019-04-01T09:25:58.353Z,12.88
2019-04-01T09:28:30.161Z,12.87
2019-04-01T09:31:01.764Z,12.69
2019-04-01T09:33:30.839Z,13.12
2019-04-01T09:36:00.011Z,12.97
2019-04-01T09:38:29.064Z,12.83
2019-04-01T09:40:58.554Z,12.86
2019-04-01T09:43:27.614Z,12.83
2019-04-01T09:45:58.174Z,13.07
2019-04-01T09:48:31.165Z,13.32
2019-04-01T09:51:00.324Z,13.29
2019-04-01T09:53:29.738Z,13.30
2019-04-01T09:56:03.158Z,13.50
2019-04-01T09:58:35.339Z,13.58
2019-04-01T10:01:13.618Z,11.51
2019-04-01T10:03:42.894Z,13.81
2019-04-01T10:06:12.062Z,13.60
2019-04-01T10:08:42.954Z,13.43
2019-04-01T10:11:12.883Z,13.62
2019-04-01T10:13:42.103Z,13.99
2019-04-01T10:16:12.997Z,14.07
2019-04-01T10:18:42.100Z,13.78
2019-04-01T10:21:12.302Z,13.81
2019-04-01T10:23:41.487Z,14.13
2019-04-01T10:26:13.970Z,14.29
2019-04-01T10:28:43.311Z,14.54
2019-04-01T10:31:13.607Z,14.41
2019-04-01T10:33:43.552Z,14.75
2019-04-01T10:36:12.897Z,15.01
2019-04-01T10:38:46.485Z,14.96
2019-04-01T10:41:13.952Z,14.84
2019-04-01T10:43:43.082Z,14.59
2019-04-01T10:46:14.263Z,14.44
2019-04-01T10:48:45.604Z,14.63
2019-04-01T10:51:14.857Z,14.79
2019-04-01T10:53:44.037Z,15.00
2019-04-01T10:56:13.188Z,15.09
2019-04-01T10:58:42.347Z,15.26
2019-04-01T11:01:13.936Z,15.39
2019-04-01T11:03:43.436Z,15.12
2019-04-01T11:06:15.638Z,15.12
2019-04-01T11:08:46.244Z,15.59
2019-04-01T11:11:17.123Z,15.68
2019-04-01T11:13:51.707Z,15.51
2019-04-01T11:16:20.443Z,16.13
2019-04-01T11:18:49.621Z,16.38
2019-04-01T11:21:20.236Z,16.75
2019-04-01T11:23:49.745Z,16.10
2019-04-01T11:26:19.081Z,16.09
2019-04-01T11:28:53.844Z,15.97
2019-04-01T11:31:23.165Z,16.26
2019-04-01T11:33:53.988Z,16.14
2019-04-01T11:36:23.119Z,16.38
2019-04-01T11:38:52.547Z,16.68
2019-04-01T11:41:22.278Z,16.18
2019-04-01T11:43:52.535Z,16.44
2019-04-01T11:46:23.217Z,16.55
2019-04-01T11:48:52.570Z,16.66
2019-04-01T11:51:32.535Z,16.90
2019-04-01T11:53:53.901Z,17.20
2019-04-01T11:56:29.253Z,17.16
2019-04-01T11:59:01.597Z,17.15
2019-04-01T12:01:30.665Z,17.41
2019-04-01T12:03:59.799Z,17.81
2019-04-01T12:06:30.246Z,17.73
2019-04-01T12:09:07.024Z,15.00
2019-04-01T12:11:42.146Z,17.14
2019-04-01T12:14:12.301Z,17.24
2019-04-01T12:16:47.873Z,17.02
2019-04-01T12:19:20.048Z,17.15
2019-04-01T12:21:49.217Z,16.96
2019-04-01T12:24:18.299Z,17.43
2019-04-01T12:26:48.880Z,17.48
2019-04-01T12:29:17.918Z,17.98
2019-04-01T12:31:49.654Z,17.69
2019-04-01T12:34:18.975Z,17.72
2019-04-01T12:36:50.583Z,17.41
2019-04-01T12:39:20.186Z,17.63
2019-04-01T12:41:51.730Z,17.58
2019-04-01T12:44:20.950Z,17.88
2019-04-01T12:46:51.180Z,17.99
2019-04-01T12:49:23.837Z,17.73
2019-04-01T12:51:58.592Z,17.82
2019-04-01T12:54:31.446Z,17.94
2019-04-01T12:57:00.573Z,18.54
2019-04-01T12:59:32.370Z,18.81
2019-04-01T13:02:02.641Z,18.83
2019-04-01T13:04:31.718Z,18.84
2019-04-01T13:07:04.830Z,18.84
2019-04-01T13:09:32.218Z,18.84
2019-04-01T13:12:04.431Z,19.00
2019-04-01T13:14:40.070Z,18.97
2019-04-01T13:17:08.871Z,19.52
2019-04-01T13:19:38.031Z,19.34
2019-04-01T13:22:09.155Z,19.38
2019-04-01T13:24:38.878Z,19.24
2019-04-01T13:27:09.304Z,18.38
2019-04-01T13:29:42.875Z,18.39
2019-04-01T13:32:12.059Z,18.93
2019-04-01T13:34:42.494Z,19.08
2019-04-01T13:37:14.160Z,19.78
2019-04-01T13:39:46.268Z,20.17
2019-04-01T13:42:17.736Z,19.38
2019-04-01T13:44:49.387Z,11.02
2019-04-01T13:47:22.140Z,19.09
2019-04-01T13:50:00.451Z,19.24
2019-04-01T13:52:30.598Z,19.63
2019-04-01T13:55:03.178Z,19.55
2019-04-01T13:57:30.671Z,19.34
2019-04-01T14:00:03.725Z,19.34
2019-04-01T14:02:35.788Z,18.90
2019-04-01T14:05:06.271Z,19.60
2019-04-01T14:07:35.921Z,19.86
2019-04-01T14:10:06.133Z,19.14
2019-04-01T14:12:35.329Z,19.37
2019-04-01T14:15:04.980Z,19.28
2019-04-01T14:17:34.223Z,18.81
2019-04-01T14:20:05.214Z,18.96
2019-04-01T14:22:34.259Z,19.07
2019-04-01T14:25:07.130Z,19.60
2019-04-01T14:27:39.264Z,20.23
2019-04-01T14:30:08.847Z,19.95
2019-04-01T14:32:44.549Z,19.91
2019-04-01T14:35:15.859Z,19.71
2019-04-01T14:37:46.352Z,19.59
2019-04-01T14:40:22.022Z,19.66
2019-04-01T14:42:53.691Z,18.76
2019-04-01T14:45:23.101Z,18.75
2019-04-01T14:47:57.833Z,18.75
2019-04-01T14:50:37.795Z,19.13
2019-04-01T14:53:07.840Z,19.38
2019-04-01T14:55:37.027Z,11.39
2019-04-01T14:58:07.931Z,19.58
2019-04-01T15:00:40.127Z,19.86
2019-04-01T15:03:10.192Z,19.84
2019-04-01T15:05:39.567Z,19.45
2019-04-01T15:08:08.640Z,11.98
2019-04-01T15:10:41.013Z,19.71
2019-04-01T15:13:11.891Z,19.82
2019-04-01T15:15:41.478Z,19.30
2019-04-01T15:18:10.639Z,19.18
2019-04-01T15:20:39.696Z,19.00
2019-04-01T15:23:08.742Z,18.97
2019-04-01T15:25:37.946Z,19.32
2019-04-01T15:28:07.954Z,19.08
2019-04-01T15:30:37.027Z,19.15
2019-04-01T15:33:06.081Z,19.31
2019-04-01T15:35:35.646Z,19.02
2019-04-01T15:38:10.098Z,19.37
2019-04-01T15:40:39.182Z,19.33
2019-04-01T15:43:08.255Z,18.91
2019-04-01T15:45:37.344Z,19.13
2019-04-01T15:48:07.629Z,19.07
2019-04-01T15:50:38.323Z,19.19
2019-04-01T15:53:11.221Z,18.88
2019-04-01T15:55:43.559Z,19.08
2019-04-01T15:58:12.601Z,18.83
2019-04-01T16:00:42.064Z,19.01
2019-04-01T16:03:15.156Z,18.95
2019-04-01T16:05:45.611Z,18.89
2019-04-01T16:08:15.568Z,18.93
2019-04-01T16:10:44.951Z,18.93
2019-04-01T16:13:15.522Z,18.62
2019-04-01T16:16:07.070Z,18.67
2019-04-01T16:18:36.662Z,18.68
2019-04-01T16:21:05.927Z,18.51
2019-04-01T16:23:38.337Z,18.51
2019-04-01T16:26:09.524Z,18.52
2019-04-01T16:28:49.239Z,18.25
2019-04-01T16:31:18.445Z,18.00
2019-04-01T16:33:47.536Z,18.35
2019-04-01T16:36:16.594Z,18.46
2019-04-01T16:38:46.070Z,18.61
2019-04-01T16:41:18.424Z,18.29
2019-04-01T16:43:56.731Z,18.02
2019-04-01T16:46:25.811Z,17.99
2019-04-01T16:48:55.246Z,17.91
2019-04-01T16:51:25.924Z,18.11
2019-04-01T16:53:56.447Z,18.11
2019-04-01T16:56:28.310Z,17.96
2019-04-01T16:58:57.428Z,17.92
2019-04-01T17:01:27.687Z,17.65
2019-04-01T17:04:00.071Z,17.76
2019-04-01T17:06:29.224Z,17.87
2019-04-01T17:08:58.347Z,17.75
2019-04-01T17:11:28.507Z,17.62
2019-04-01T17:14:00.016Z,17.60
2019-04-01T17:16:29.160Z,17.59
2019-04-01T17:18:58.336Z,17.64
2019-04-01T17:21:27.463Z,17.59
2019-04-01T17:23:59.712Z,17.69
2019-04-01T17:26:28.773Z,17.58
2019-04-01T17:28:57.939Z,17.61
2019-04-01T17:31:27.067Z,17.41
2019-04-01T17:33:56.159Z,17.37
2019-04-01T17:36:25.319Z,17.32
2019-04-01T17:38:56.567Z,17.24
2019-04-01T17:41:25.636Z,17.04
2019-04-01T17:43:56.447Z,17.15
2019-04-01T17:46:29.278Z,17.15
2019-04-01T17:48:58.370Z,17.35
2019-04-01T17:51:27.462Z,17.33
2019-04-01T17:53:56.535Z,17.28
2019-04-01T17:56:27.475Z,17.21
2019-04-01T17:58:56.515Z,17.01
2019-04-01T18:01:25.643Z,16.84
2019-04-01T18:03:54.710Z,16.87
2019-04-01T18:06:24.100Z,16.82
2019-04-01T18:08:54.498Z,16.83
2019-04-01T18:11:23.693Z,16.81
2019-04-01T18:13:57.367Z,16.73
2019-04-01T18:16:26.482Z,16.69
2019-04-01T18:18:59.284Z,16.69
2019-04-01T18:21:28.414Z,16.57
2019-04-01T18:23:57.472Z,16.51
2019-04-01T18:26:30.966Z,16.50
2019-04-01T18:29:04.166Z,16.52
2019-04-01T18:31:44.442Z,16.56
2019-04-01T18:34:13.507Z,16.57
2019-04-01T18:36:42.562Z,16.47
2019-04-01T18:39:11.648Z,16.43
2019-04-01T18:41:40.733Z,16.36
2019-04-01T18:44:10.958Z,16.41
2019-04-01T18:46:41.137Z,16.54
2019-04-01T18:49:10.227Z,16.50
2019-04-01T18:51:42.873Z,16.40
2019-04-01T18:54:11.995Z,16.28
2019-04-01T18:56:41.064Z,16.35
2019-04-01T18:59:10.154Z,16.34
2019-04-01T19:01:39.515Z,16.39
2019-04-01T19:04:09.707Z,16.20
2019-04-01T19:06:40.638Z,16.33
2019-04-01T19:09:13.180Z,16.34
2019-04-01T19:11:43.543Z,16.37
2019-04-01T19:14:16.609Z,16.36
2019-04-01T19:16:47.466Z,16.32
2019-04-01T19:19:16.531Z,16.33
2019-04-01T19:21:45.818Z,16.45
2019-04-01T19:24:16.138Z,16.30
2019-04-01T19:26:47.694Z,16.21
2019-04-01T19:29:16.841Z,16.21
2019-04-01T19:31:45.928Z,16.40
2019-04-01T19:34:15.431Z,16.54
2019-04-01T19:36:48.956Z,16.44
2019-04-01T19:39:18.047Z,16.39
2019-04-01T19:41:49.044Z,16.46
2019-04-01T19:44:22.688Z,16.66
2019-04-01T19:46:51.957Z,16.75
2019-04-01T19:49:26.780Z,16.62
2019-04-01T19:51:57.719Z,15.02
2019-04-01T19:54:33.613Z,16.74
2019-04-01T19:57:03.153Z,16.66
2019-04-01T19:59:35.699Z,16.72
2019-04-01T20:02:09.730Z,16.75
2019-04-01T20:04:39.124Z,16.96
2019-04-01T20:07:10.775Z,16.77
2019-04-01T20:09:39.854Z,16.53
2019-04-01T20:12:10.104Z,16.10
2019-04-01T20:14:41.605Z,16.53
2019-04-01T20:17:19.215Z,16.52
2019-04-01T20:19:49.937Z,16.46
2019-04-01T20:22:19.075Z,16.35
2019-04-01T20:24:48.296Z,16.58
2019-04-01T20:27:23.037Z,16.54
2019-04-01T20:29:52.310Z,16.30
2019-04-01T20:32:22.786Z,15.97
2019-04-01T20:34:57.170Z,16.18
2019-04-01T20:37:23.762Z,16.12
2019-04-01T20:39:52.797Z,16.03
2019-04-01T20:42:22.967Z,16.14
2019-04-01T20:44:52.029Z,16.15
2019-04-01T20:47:21.125Z,16.04
2019-04-01T20:49:50.217Z,15.87
2019-04-01T20:52:26.780Z,16.01
2019-04-01T20:54:55.903Z,16.04
2019-04-01T20:57:24.981Z,15.94
2019-04-01T20:59:57.374Z,15.93
2019-04-01T21:02:28.052Z,15.92
2019-04-01T21:04:57.169Z,15.78
2019-04-01T21:07:26.229Z,15.74
2019-04-01T21:09:55.347Z,15.78
2019-04-01T21:12:24.405Z,15.81
2019-04-01T21:14:56.151Z,15.88
2019-04-01T21:17:25.382Z,15.77
2019-04-01T21:19:54.559Z,15.82
2019-04-01T21:22:23.604Z,15.68
2019-04-01T21:24:52.681Z,15.47
2019-04-01T21:27:23.174Z,15.34
2019-04-01T21:29:52.671Z,15.26
2019-04-01T21:32:21.778Z,15.37
2019-04-01T21:34:50.851Z,15.39
2019-04-01T21:37:19.917Z,15.34
2019-04-01T21:39:49.407Z,15.64
2019-04-01T21:42:22.964Z,15.37
2019-04-01T21:44:52.296Z,15.57
2019-04-01T21:47:25.511Z,15.14
2019-04-01T21:49:56.468Z,15.21
2019-04-01T21:52:26.784Z,14.88
2019-04-01T21:54:58.880Z,15.53
2019-04-01T21:57:30.077Z,15.39
2019-04-01T21:59:59.245Z,15.47
2019-04-01T22:02:40.436Z,15.63
2019-04-01T22:05:15.900Z,15.51
2019-04-01T22:07:48.241Z,15.66
2019-04-01T22:10:17.768Z,15.18
2019-04-01T22:12:46.818Z,14.94
2019-04-01T22:15:18.601Z,14.93
2019-04-01T22:18:01.038Z,15.05
2019-04-01T22:20:30.105Z,14.89
2019-04-01T22:23:00.440Z,14.73
2019-04-01T22:25:33.015Z,14.69
2019-04-01T22:28:02.114Z,14.79
2019-04-01T22:30:31.284Z,14.75
2019-04-01T22:33:00.336Z,14.79
2019-04-01T22:35:38.650Z,14.89
2019-04-01T22:38:00.389Z,15.03
2019-04-01T22:40:30.564Z,5.50
2019-04-01T22:43:01.287Z,15.05
2019-04-01T22:45:33.377Z,15.15
2019-04-01T22:48:11.579Z,15.23
2019-04-01T22:50:40.761Z,15.27
2019-04-01T22:53:09.835Z,15.19
2019-04-01T22:55:38.919Z,15.30
2019-04-01T22:58:08.003Z,15.20
2019-04-01T23:00:37.450Z,15.12
2019-04-01T23:03:07.082Z,15.07
2019-04-01T23:05:37.780Z,14.86
2019-04-01T23:08:07.401Z,14.80
2019-04-01T23:10:40.229Z,14.88
2019-04-01T23:13:09.308Z,14.95
2019-04-01T23:15:38.428Z,14.88
2019-04-01T23:18:07.540Z,14.86
2019-04-01T23:20:36.986Z,14.85
2019-04-01T23:23:09.628Z,14.73
2019-04-01T23:25:40.298Z,14.65
2019-04-01T23:28:11.686Z,14.84
2019-04-01T23:30:40.780Z,14.97
2019-04-01T23:33:09.868Z,14.95
2019-04-01T23:35:39.176Z,14.97
2019-04-01T23:38:11.428Z,14.91
2019-04-01T23:40:42.079Z,14.88
2019-04-01T23:43:11.231Z,14.89
2019-04-01T23:45:40.273Z,14.93
2019-04-01T23:48:11.178Z,14.71
2019-04-01T23:50:40.278Z,14.62
2019-04-01T23:53:11.128Z,14.45
2019-04-01T23:55:40.340Z,14.27
2019-04-01T23:58:09.445Z,14.29
